East End, Virginia
Current Conditions -  °F | °C
As of 10:54 AM on Sunday 21 Dec 2014 (Local Time) from KRIC Reporting Station
Overcast Overcast  
Wind Chill: 41°   Ceiling: 6500
Heat Index: 41°   Visibility: 10mi
Dew Point: 24°   Wind: 3mph
Humidity: 51%   Direction: 20°NNE
Pressure: 30.36"   Gusts: NA
Location:  37.556°N, 77.3779°W
Report Text: KRIC 211554Z 02003KT 10SM OVC065 05/M04 A3036 RMK AO2 SLP286 T00501044
Loading
Personal Weather Stations






























Interactive Weather Map New forecast layout! Learn more

10-Day Weather Forecast

Advertisements
Track Severe Weather on mobile